Time;durP1;ratioP1;P1;durP2;ratioP2;P2;SDS_P1;SDS_P2;PMS_P1;PMS_P2;Temp;Humidity;BMP_temperature;BMP_pressure;BME280_temperature;BME280_humidity;BME280_pressure;Samples;Min_cycle;Max_cycle;Signal;HPM_P1;HPM_P2
2021/01/19 00:00:11;;;;;;;23.40;12.65;;;6.50;96.80;;;;;;5053195;28;20028;-71
2021/01/19 00:02:36;;;;;;;26.63;12.13;;;6.50;96.70;;;;;;5051786;28;20140;-71
2021/01/19 00:25:12;;;;;;;26.65;12.68;;;6.50;96.60;;;;;;5066462;28;20086;-71
2021/01/19 00:27:38;;;;;;;22.17;12.35;;;6.50;96.60;;;;;;5072782;28;20021;-70
2021/01/19 00:30:04;;;;;;;26.33;13.82;;;6.50;96.60;;;;;;5066083;28;20404;-70
2021/01/19 00:32:29;;;;;;;22.52;12.50;;;6.50;96.60;;;;;;5052521;28;20626;-71
2021/01/19 00:34:55;;;;;;;24.33;12.85;;;6.50;96.60;;;;;;5065456;28;20967;-70
2021/01/19 00:37:20;;;;;;;21.63;12.27;;;6.50;96.60;;;;;;5072280;28;20032;-70
2021/01/19 00:39:46;;;;;;;21.33;12.80;;;6.50;96.60;;;;;;5071758;28;20063;-70
2021/01/19 00:42:12;;;;;;;22.25;12.43;;;6.60;96.70;;;;;;5072320;28;20091;-70
2021/01/19 00:44:37;;;;;;;26.75;13.05;;;6.60;96.60;;;;;;5070198;28;20134;-70
2021/01/19 00:47:04;;;;;;;25.38;12.52;;;6.60;96.60;;;;;;5053436;28;20025;-70
2021/01/19 00:52:51;;;;;;;18.73;11.43;;;6.60;96.50;;;;;;5053726;28;20032;-68
2021/01/19 00:55:17;;;;;;;21.00;11.45;;;6.60;96.40;;;;;;5073161;28;20109;-67
2021/01/19 00:57:46;;;;;;;20.85;11.68;;;6.60;96.40;;;;;;5088552;28;20498;-67
2021/01/19 01:00:12;;;;;;;22.30;13.00;;;6.60;96.40;;;;;;5050524;28;20508;-67
2021/01/19 01:02:38;;;;;;;19.80;12.57;;;6.60;96.40;;;;;;5071269;28;20112;-68
2021/01/19 01:05:05;;;;;;;20.75;12.25;;;6.60;96.40;;;;;;5071943;28;20086;-68
2021/01/19 01:07:36;;;;;;;21.50;11.45;;;6.60;96.40;;;;;;5069096;28;20037;-68
2021/01/19 01:10:05;;;;;;;21.92;12.35;;;6.60;96.40;;;;;;5051934;28;20064;-68
2021/01/19 01:12:31;;;;;;;20.70;12.95;;;6.60;96.40;;;;;;5051191;28;20033;-67
2021/01/19 01:14:58;;;;;;;19.48;12.50;;;6.60;96.30;;;;;;5051894;28;20568;-68
2021/01/19 01:17:23;;;;;;;21.58;12.63;;;6.60;96.40;;;;;;5051308;28;20386;-69
2021/01/19 01:19:49;;;;;;;23.33;12.25;;;6.60;96.40;;;;;;5051800;28;20033;-68
2021/01/19 01:22:14;;;;;;;21.40;12.38;;;6.60;96.40;;;;;;5051864;28;20033;-68
2021/01/19 01:24:40;;;;;;;22.65;12.38;;;6.60;96.30;;;;;;5071742;28;20035;-67
2021/01/19 01:27:05;;;;;;;18.40;11.85;;;6.60;96.30;;;;;;5068828;28;20055;-68
2021/01/19 01:29:31;;;;;;;20.20;11.93;;;6.50;96.30;;;;;;5071354;28;20021;-68
2021/01/19 01:31:57;;;;;;;21.15;12.05;;;6.50;96.30;;;;;;5056411;28;20021;-68
2021/01/19 01:34:22;;;;;;;21.27;12.93;;;6.60;96.40;;;;;;5075970;28;20131;-68
2021/01/19 01:36:48;;;;;;;20.33;12.32;;;6.50;96.30;;;;;;5066454;28;20049;-68
2021/01/19 01:39:13;;;;;;;21.52;12.18;;;6.60;96.40;;;;;;5051059;28;20034;-67
2021/01/19 01:41:39;;;;;;;18.52;11.60;;;6.60;96.40;;;;;;5061677;28;20568;-67
2021/01/19 01:44:04;;;;;;;26.98;13.63;;;6.60;96.30;;;;;;5065045;28;20647;-67
2021/01/19 01:46:32;;;;;;;24.38;12.32;;;6.60;96.30;;;;;;5060430;28;20028;-67
2021/01/19 01:48:57;;;;;;;21.38;12.63;;;6.60;96.20;;;;;;5070355;28;20032;-67
2021/01/19 01:51:24;;;;;;;18.85;11.43;;;6.60;96.30;;;;;;5060880;28;20477;-66
2021/01/19 01:53:51;;;;;;;19.38;11.85;;;6.60;96.30;;;;;;5051235;28;20029;-67
2021/01/19 01:56:17;;;;;;;24.30;13.00;;;6.50;96.30;;;;;;5052382;28;20033;-68
2021/01/19 01:58:42;;;;;;;22.60;12.80;;;6.50;96.50;;;;;;5051023;28;20013;-67
2021/01/19 02:01:08;;;;;;;21.60;13.02;;;6.50;96.30;;;;;;5057401;28;20025;-67
2021/01/19 02:03:33;;;;;;;24.55;12.45;;;6.50;96.40;;;;;;5071007;28;20025;-66
2021/01/19 02:05:59;;;;;;;24.65;11.93;;;6.50;96.40;;;;;;5063979;28;20120;-67
2021/01/19 02:08:56;;;;;;;21.67;12.60;;;6.50;96.40;;;;;;5050946;28;20128;-68
2021/01/19 02:11:34;;;;;;;23.27;11.57;;;6.60;96.40;;;;;;5059560;28;20435;-68
2021/01/19 02:14:02;;;;;;;21.05;11.75;;;6.60;96.40;;;;;;5064622;28;20043;-67
2021/01/19 02:16:49;;;;;;;22.15;11.77;;;6.60;96.30;;;;;;5060748;28;20370;-68
2021/01/19 02:19:36;;;;;;;22.02;11.57;;;6.60;96.40;;;;;;5051090;28;20033;-68
2021/01/19 02:22:18;;;;;;;22.33;11.20;;;6.60;96.40;;;;;;5051411;28;20362;-67
2021/01/19 02:25:11;;;;;;;20.42;11.60;;;6.60;96.40;;;;;;5050999;28;20036;-68
2021/01/19 02:27:52;;;;;;;18.55;11.73;;;6.60;96.40;;;;;;5056026;28;20509;-67
2021/01/19 02:30:51;;;;;;;18.25;11.77;;;6.60;96.40;;;;;;5054389;28;20025;-67
2021/01/19 02:33:23;;;;;;;24.30;12.57;;;6.60;96.30;;;;;;5070527;28;20486;-68
2021/01/19 02:36:13;;;;;;;18.50;11.25;;;6.60;96.20;;;;;;5053916;28;20051;-68
2021/01/19 02:38:48;;;;;;;16.80;10.88;;;6.60;96.20;;;;;;5054139;28;20494;-68
2021/01/19 02:41:13;;;;;;;;;;;6.60;96.20;;;;;;5061981;28;20224;-68
2021/01/19 02:43:46;;;;;;;14.60;9.50;;;6.60;96.10;;;;;;5074402;28;19912;-68
2021/01/19 02:46:11;;;;;;;21.42;11.98;;;6.60;96.10;;;;;;5072526;28;20038;-68
2021/01/19 02:48:37;;;;;;;18.75;10.95;;;6.60;96.10;;;;;;5073808;28;20024;-67
2021/01/19 02:51:02;;;;;;;20.40;11.57;;;6.60;96.10;;;;;;5071094;28;20024;-68
2021/01/19 02:53:28;;;;;;;20.42;11.48;;;6.60;96.20;;;;;;5070832;28;20033;-68
2021/01/19 02:55:55;;;;;;;16.73;10.73;;;6.60;96.10;;;;;;5074619;28;20383;-67
2021/01/19 02:58:37;;;;;;;19.67;10.90;;;6.60;96.10;;;;;;5071281;28;20021;-67
2021/01/19 03:01:02;;;;;;;21.85;11.43;;;6.60;96.10;;;;;;5062833;28;20032;-67
2021/01/19 03:03:32;;;;;;;17.80;11.38;;;6.60;96.10;;;;;;5053727;28;20025;-68
2021/01/19 03:06:12;;;;;;;19.35;11.38;;;6.60;96.10;;;;;;5054066;28;20037;-67
2021/01/19 03:12:00;;;;;;;18.92;10.80;;;6.60;96.10;;;;;;5062874;28;20072;-68
2021/01/19 03:15:03;;;;;;;19.02;11.48;;;6.60;96.10;;;;;;5054775;28;20848;-68
2021/01/19 03:17:29;;;;;;;21.25;10.82;;;6.60;96.10;;;;;;5053262;28;20028;-68
2021/01/19 03:19:54;;;;;;;18.10;10.73;;;6.60;96.10;;;;;;5056023;28;20090;-68
2021/01/19 03:22:20;;;;;;;19.25;10.30;;;6.60;96.10;;;;;;5054380;28;20075;-67
2021/01/19 03:24:45;;;;;;;19.55;10.77;;;6.60;96.10;;;;;;5053060;28;20036;-68
2021/01/19 03:27:11;;;;;;;21.85;10.57;;;6.60;96.10;;;;;;5053593;28;20032;-68
2021/01/19 03:29:36;;;;;;;18.42;10.45;;;6.60;96.10;;;;;;5068219;28;20095;-67
2021/01/19 03:32:03;;;;;;;17.83;10.15;;;6.60;96.10;;;;;;5073931;28;20115;-68
2021/01/19 03:34:28;;;;;;;14.02;9.48;;;6.60;96.10;;;;;;5071264;28;20493;-67
2021/01/19 03:36:54;;;;;;;16.05;10.38;;;6.60;96.00;;;;;;5073474;28;20033;-68
2021/01/19 03:39:20;;;;;;;18.17;10.35;;;6.60;96.00;;;;;;5060001;28;20049;-68
2021/01/19 03:41:45;;;;;;;16.75;10.15;;;6.60;96.00;;;;;;5053605;28;20059;-68
2021/01/19 03:44:11;;;;;;;14.95;9.63;;;6.60;95.90;;;;;;5063414;28;20044;-68
2021/01/19 03:46:36;;;;;;;18.00;9.82;;;6.60;95.90;;;;;;5073712;28;20035;-68
2021/01/19 03:49:03;;;;;;;16.10;10.15;;;6.60;95.90;;;;;;5071279;28;20488;-68
2021/01/19 03:51:28;;;;;;;18.40;10.43;;;6.60;95.90;;;;;;5073269;28;20034;-68
2021/01/19 03:53:54;;;;;;;16.75;9.48;;;6.60;95.90;;;;;;5063428;28;20500;-68
2021/01/19 03:56:20;;;;;;;17.98;10.07;;;6.60;95.90;;;;;;5052659;28;20032;-67
2021/01/19 03:58:47;;;;;;;16.15;10.63;;;6.60;95.90;;;;;;5060361;28;20020;-67
2021/01/19 04:01:12;;;;;;;16.08;9.50;;;6.60;95.90;;;;;;5062979;28;20114;-67
2021/01/19 04:03:38;;;;;;;14.80;9.43;;;6.60;95.90;;;;;;5058802;28;20056;-67
2021/01/19 04:06:07;;;;;;;19.50;9.88;;;6.60;95.90;;;;;;5073054;28;20162;-67
2021/01/19 04:08:34;;;;;;;18.55;10.70;;;6.50;96.00;;;;;;5058628;28;20489;-67
2021/01/19 04:11:00;;;;;;;17.40;10.05;;;6.50;96.10;;;;;;5072594;28;20033;-68
2021/01/19 04:13:26;;;;;;;15.40;10.25;;;6.40;96.10;;;;;;5065452;28;20033;-68
2021/01/19 04:15:52;;;;;;;16.65;9.68;;;6.50;96.10;;;;;;5052812;28;20501;-68
2021/01/19 04:18:18;;;;;;;16.67;9.52;;;6.40;96.10;;;;;;5052603;28;20032;-66
2021/01/19 04:20:43;;;;;;;15.32;9.68;;;6.40;96.20;;;;;;5052661;28;20562;-67
2021/01/19 04:23:13;;;;;;;14.95;9.95;;;6.40;96.20;;;;;;5055815;28;20116;-67
2021/01/19 04:25:40;;;;;;;19.10;9.95;;;6.40;96.10;;;;;;5071904;28;20772;-67
2021/01/19 04:28:05;;;;;;;16.50;10.57;;;6.40;96.20;;;;;;5070778;28;20510;-67
2021/01/19 04:30:31;;;;;;;16.85;9.48;;;6.40;96.10;;;;;;5071582;28;20036;-68
2021/01/19 04:32:56;;;;;;;16.60;10.35;;;6.40;96.10;;;;;;5070635;28;20028;-67
2021/01/19 04:35:22;;;;;;;16.45;9.10;;;6.40;96.10;;;;;;5052287;28;20554;-67
2021/01/19 04:37:47;;;;;;;14.93;9.32;;;6.40;96.10;;;;;;5051963;28;20115;-67
2021/01/19 04:40:13;;;;;;;14.13;9.30;;;6.40;96.10;;;;;;5070552;28;20106;-67
2021/01/19 04:42:38;;;;;;;16.25;10.02;;;6.40;96.10;;;;;;5072398;28;20064;-67
2021/01/19 04:45:06;;;;;;;16.17;10.40;;;6.40;96.10;;;;;;5051673;28;20083;-67
2021/01/19 04:47:33;;;;;;;18.38;9.63;;;6.30;96.10;;;;;;5050966;28;20392;-67
2021/01/19 04:49:59;;;;;;;17.77;9.85;;;6.40;96.10;;;;;;5067985;28;20032;-67
2021/01/19 04:52:28;;;;;;;14.65;9.25;;;6.40;96.10;;;;;;5065380;28;20079;-68
2021/01/19 04:54:59;;;;;;;16.75;8.77;;;6.40;96.00;;;;;;5068816;28;20127;-68
2021/01/19 04:57:30;;;;;;;19.20;9.77;;;6.40;96.00;;;;;;5071652;28;20029;-67
2021/01/19 05:00:19;;;;;;;16.63;9.48;;;6.40;96.00;;;;;;5068494;28;20082;-68
2021/01/19 05:03:01;;;;;;;16.70;9.50;;;6.30;96.00;;;;;;5068499;28;20036;-67
2021/01/19 05:05:35;;;;;;;13.52;9.38;;;6.30;96.00;;;;;;5070499;28;20063;-68
2021/01/19 05:08:48;;;;;;;19.92;9.38;;;6.30;96.10;;;;;;5066482;28;20036;-68
2021/01/19 05:11:25;;;;;;;14.15;8.50;;;6.30;96.10;;;;;;5071817;28;20086;-68
2021/01/19 05:13:55;;;;;;;13.38;9.18;;;6.30;96.00;;;;;;5068408;28;20052;-68
2021/01/19 05:16:31;;;;;;;13.82;8.75;;;6.30;96.00;;;;;;5058032;28;20512;-68
2021/01/19 05:18:58;;;;;;;13.88;8.25;;;6.30;95.90;;;;;;5052644;28;20025;-68
2021/01/19 05:21:24;;;;;;;14.30;8.95;;;6.30;95.90;;;;;;5057561;28;20028;-68
2021/01/19 05:23:50;;;;;;;16.38;9.23;;;6.30;95.90;;;;;;5059613;28;20032;-67
2021/01/19 05:26:17;;;;;;;15.30;7.75;;;6.30;95.90;;;;;;5052449;28;20072;-67
2021/01/19 05:28:49;;;;;;;11.80;7.82;;;6.30;95.90;;;;;;5058705;28;20050;-68
2021/01/19 05:31:14;;;;;;;13.90;8.30;;;6.30;95.90;;;;;;5070768;28;20040;-68
2021/01/19 05:33:54;;;;;;;12.80;7.93;;;6.20;95.90;;;;;;5069355;28;20063;-67
2021/01/19 05:36:24;;;;;;;12.43;7.65;;;6.20;95.80;;;;;;5064350;28;20494;-68
2021/01/19 05:38:54;;;;;;;11.43;7.03;;;6.20;95.80;;;;;;5059968;28;20043;-68
2021/01/19 05:41:25;;;;;;;12.35;7.50;;;6.20;95.80;;;;;;5070589;28;20075;-68
2021/01/19 05:43:54;;;;;;;12.48;7.15;;;6.20;95.80;;;;;;5069389;28;20086;-68
2021/01/19 05:46:27;;;;;;;13.55;7.18;;;6.20;95.80;;;;;;5069377;28;20135;-68
2021/01/19 05:48:59;;;;;;;12.05;6.53;;;6.10;95.80;;;;;;5051007;28;20123;-67
2021/01/19 05:51:27;;;;;;;10.50;6.97;;;6.20;95.80;;;;;;5051714;28;20087;-67
2021/01/19 05:53:54;;;;;;;11.80;6.63;;;6.10;95.70;;;;;;5051000;28;20029;-68
2021/01/19 05:56:22;;;;;;;8.98;6.03;;;6.20;95.70;;;;;;5051001;28;20041;-68
2021/01/19 05:58:48;;;;;;;10.43;6.45;;;6.20;95.70;;;;;;5050624;28;20028;-68
2021/01/19 06:01:31;;;;;;;10.57;6.63;;;6.20;95.70;;;;;;5054917;28;20043;-66
2021/01/19 06:04:00;;;;;;;12.20;6.70;;;6.20;95.60;;;;;;5064393;28;20028;-67
2021/01/19 06:06:27;;;;;;;10.73;5.75;;;6.20;95.60;;;;;;5073650;28;20036;-67
2021/01/19 06:09:01;;;;;;;9.90;5.97;;;6.20;95.60;;;;;;5065889;28;20090;-68
2021/01/19 06:11:27;;;;;;;14.50;6.47;;;6.20;95.60;;;;;;5054985;28;20037;-66
2021/01/19 06:13:54;;;;;;;8.52;5.88;;;6.30;95.50;;;;;;5062959;28;20120;-67
2021/01/19 06:16:24;;;;;;;9.30;5.90;;;6.20;95.50;;;;;;5070032;28;20110;-68
2021/01/19 06:18:50;;;;;;;11.73;6.13;;;6.20;95.50;;;;;;5062359;28;20093;-67
2021/01/19 06:21:29;;;;;;;9.65;6.22;;;6.30;95.50;;;;;;5074265;28;20032;-67
2021/01/19 06:23:56;;;;;;;10.43;6.22;;;6.30;95.50;;;;;;5067044;28;20065;-67
2021/01/19 06:26:21;;;;;;;10.85;5.93;;;6.30;95.50;;;;;;5054619;28;20638;-68
2021/01/19 06:28:47;;;;;;;10.45;6.05;;;6.30;95.40;;;;;;5056174;28;20137;-67
2021/01/19 06:31:14;;;;;;;12.88;6.28;;;6.30;95.40;;;;;;5054723;28;20037;-67
2021/01/19 06:33:41;;;;;;;11.45;6.68;;;6.20;95.40;;;;;;5054816;28;20087;-68
2021/01/19 06:36:08;;;;;;;11.65;6.47;;;6.30;95.40;;;;;;5054725;28;20072;-68
2021/01/19 06:38:34;;;;;;;9.60;5.90;;;6.30;95.40;;;;;;5056949;28;20056;-68
2021/01/19 06:41:01;;;;;;;13.65;6.35;;;6.30;95.40;;;;;;5054676;28;20429;-67
2021/01/19 06:43:35;;;;;;;10.52;5.95;;;6.30;95.30;;;;;;5058696;28;20024;-68
2021/01/19 06:46:07;;;;;;;8.45;5.53;;;6.30;95.40;;;;;;5060613;28;20044;-67
2021/01/19 06:48:34;;;;;;;10.32;6.45;;;6.30;95.30;;;;;;5059704;28;20028;-67
2021/01/19 06:51:02;;;;;;;11.45;6.40;;;6.30;95.30;;;;;;5074384;28;20032;-67
2021/01/19 06:53:41;;;;;;;10.85;6.40;;;6.30;95.30;;;;;;5067459;28;20544;-67
2021/01/19 06:56:12;;;;;;;12.52;6.78;;;6.30;95.30;;;;;;5055423;28;20033;-67
2021/01/19 06:58:52;;;;;;;9.15;5.88;;;6.20;95.30;;;;;;5062279;28;20085;-68
2021/01/19 07:01:25;;;;;;;10.95;6.28;;;6.20;95.30;;;;;;5079199;28;20040;-67
2021/01/19 07:04:03;;;;;;;9.95;6.00;;;6.20;95.30;;;;;;5064151;28;20093;-68
2021/01/19 07:07:06;;;;;;;11.07;6.43;;;6.20;95.40;;;;;;5054177;28;20029;-68
2021/01/19 07:10:04;;;;;;;11.63;6.47;;;6.10;95.40;;;;;;5057593;28;20025;-66
2021/01/19 07:12:51;;;;;;;11.90;6.68;;;6.10;95.40;;;;;;5058112;28;20071;-66
2021/01/19 07:15:21;;;;;;;14.20;6.80;;;6.10;95.40;;;;;;5071636;28;20090;-67
2021/01/19 07:18:03;;;;;;;15.05;7.35;;;6.10;95.50;;;;;;5060536;28;20496;-66
2021/01/19 07:20:32;;;;;;;10.85;7.32;;;6.10;95.50;;;;;;5053321;28;20134;-66
2021/01/19 07:23:08;;;;;;;14.45;7.70;;;6.10;95.50;;;;;;5054852;28;20081;-66
2021/01/19 07:25:34;;;;;;;12.55;7.07;;;6.10;95.50;;;;;;5073072;28;20037;-66
2021/01/19 07:28:01;;;;;;;12.82;7.80;;;6.10;95.50;;;;;;5070406;28;20511;-66
2021/01/19 07:30:28;;;;;;;16.70;7.85;;;6.10;95.50;;;;;;5056109;28;20021;-66
2021/01/19 07:32:56;;;;;;;12.38;7.13;;;6.10;95.50;;;;;;5056434;28;20514;-66
2021/01/19 07:35:24;;;;;;;12.80;7.70;;;6.10;95.50;;;;;;5053603;28;20066;-66
2021/01/19 07:37:57;;;;;;;11.13;6.90;;;6.10;95.50;;;;;;5054229;28;20104;-66
2021/01/19 07:40:24;;;;;;;14.40;7.95;;;6.10;95.50;;;;;;5052932;28;20094;-66
2021/01/19 07:42:50;;;;;;;15.25;7.63;;;6.00;95.50;;;;;;5054856;28;20385;-66
2021/01/19 07:45:16;;;;;;;14.05;7.50;;;6.00;95.50;;;;;;5072461;28;20049;-66
2021/01/19 07:47:43;;;;;;;15.07;7.72;;;6.00;95.60;;;;;;5054044;28;20167;-66
2021/01/19 07:50:15;;;;;;;17.60;8.73;;;6.00;95.60;;;;;;5053694;28;20036;-66
2021/01/19 07:52:46;;;;;;;14.55;8.48;;;6.00;95.60;;;;;;5067841;28;20029;-67
2021/01/19 07:55:20;;;;;;;14.23;8.13;;;6.10;95.60;;;;;;5072295;28;20495;-66
2021/01/19 07:57:48;;;;;;;12.65;8.88;;;6.10;95.60;;;;;;5053697;28;20037;-66
2021/01/19 08:00:26;;;;;;;13.93;7.30;;;6.10;95.60;;;;;;5060701;28;20478;-67
2021/01/19 08:03:07;;;;;;;16.08;8.32;;;6.10;95.60;;;;;;5061977;28;20029;-67
2021/01/19 08:05:33;;;;;;;13.85;7.70;;;6.10;95.60;;;;;;5062497;28;20448;-66
2021/01/19 08:07:59;;;;;;;13.57;7.65;;;6.10;95.60;;;;;;5064829;28;20025;-66
2021/01/19 08:10:30;;;;;;;14.05;7.72;;;6.10;95.70;;;;;;5071755;28;20035;-65
2021/01/19 08:12:58;;;;;;;14.02;7.97;;;6.10;95.70;;;;;;5080936;28;20388;-66
2021/01/19 08:15:28;;;;;;;14.10;8.63;;;6.10;95.60;;;;;;5064880;28;20037;-66
2021/01/19 08:17:56;;;;;;;16.30;8.98;;;6.10;95.70;;;;;;5053107;28;20497;-66
2021/01/19 08:20:26;;;;;;;13.35;7.95;;;6.10;95.70;;;;;;5051993;28;20033;-66
2021/01/19 08:22:55;;;;;;;16.05;8.80;;;6.20;95.70;;;;;;5050762;28;20036;-65
2021/01/19 08:25:24;;;;;;;14.23;8.98;;;6.20;95.70;;;;;;5052911;28;20029;-66
2021/01/19 08:27:50;;;;;;;15.18;8.45;;;6.20;95.70;;;;;;5052392;28;20040;-67
2021/01/19 08:30:24;;;;;;;15.27;8.48;;;6.20;95.70;;;;;;5052271;28;20079;-67
2021/01/19 08:32:50;;;;;;;13.80;8.77;;;6.20;95.70;;;;;;5052478;28;20037;-67
2021/01/19 08:35:17;;;;;;;16.42;9.48;;;6.20;95.70;;;;;;5051534;28;20049;-65
2021/01/19 08:37:51;;;;;;;15.00;8.25;;;6.20;95.70;;;;;;5056933;28;20135;-66
2021/01/19 08:40:22;;;;;;;12.55;7.47;;;6.30;95.70;;;;;;5052478;28;20499;-66
2021/01/19 08:42:47;;;;;;;14.65;8.02;;;6.30;95.70;;;;;;5057178;28;20036;-66
2021/01/19 08:45:23;;;;;;;11.65;6.90;;;6.30;95.70;;;;;;5052911;28;20049;-68
2021/01/19 08:48:00;;;;;;;12.95;8.45;;;6.30;95.70;;;;;;5054507;28;20033;-66
2021/01/19 08:50:28;;;;;;;12.18;7.93;;;6.30;95.60;;;;;;5072034;28;20477;-65
2021/01/19 08:52:54;;;;;;;11.50;7.88;;;6.30;95.60;;;;;;5062726;28;20037;-65
2021/01/19 08:55:25;;;;;;;13.80;8.02;;;6.40;95.60;;;;;;5051569;28;20041;-64
2021/01/19 08:57:55;;;;;;;11.48;7.60;;;6.40;95.50;;;;;;5053558;28;20031;-65
2021/01/19 09:00:34;;;;;;;13.93;7.75;;;6.40;95.50;;;;;;5051208;28;20545;-65
2021/01/19 09:03:12;;;;;;;13.77;8.05;;;6.40;95.40;;;;;;5053338;28;20032;-66
2021/01/19 09:05:38;;;;;;;15.10;7.75;;;6.50;95.40;;;;;;5092283;28;20472;-65
2021/01/19 09:08:23;;;;;;;14.50;7.53;;;6.50;95.40;;;;;;5052948;28;20029;-65
2021/01/19 09:11:00;;;;;;;;;;;6.50;95.40;;;;;;5058478;28;20063;-65
2021/01/19 09:13:26;;;;;;;9.63;6.70;;;6.50;95.30;;;;;;5079834;28;19908;-65
2021/01/19 09:15:52;;;;;;;12.10;7.32;;;6.50;95.30;;;;;;5067237;28;20082;-65
2021/01/19 09:18:18;;;;;;;12.32;6.72;;;6.50;95.30;;;;;;5052028;28;20119;-65
2021/01/19 09:20:44;;;;;;;11.77;6.32;;;6.60;95.20;;;;;;5061978;28;20024;-66
2021/01/19 09:23:19;;;;;;;9.80;6.75;;;6.50;95.20;;;;;;5052116;28;20473;-66
2021/01/19 09:25:46;;;;;;;9.85;6.45;;;6.60;95.20;;;;;;5062359;28;20082;-66
2021/01/19 09:28:12;;;;;;;10.15;6.40;;;6.60;95.10;;;;;;5053683;28;20029;-66
2021/01/19 09:30:39;;;;;;;10.50;6.22;;;6.60;95.00;;;;;;5068627;28;20047;-66
2021/01/19 09:33:10;;;;;;;14.55;6.93;;;6.70;95.00;;;;;;5050568;28;20021;-66
2021/01/19 09:35:37;;;;;;;12.05;6.32;;;6.70;95.00;;;;;;5067598;28;20032;-67
2021/01/19 09:38:03;;;;;;;11.25;6.10;;;6.70;94.90;;;;;;5058956;28;20440;-67
2021/01/19 09:40:33;;;;;;;13.00;6.07;;;6.70;94.90;;;;;;5068861;28;20473;-67
2021/01/19 09:43:05;;;;;;;10.50;6.55;;;6.70;94.90;;;;;;5051984;28;20021;-67
2021/01/19 09:45:31;;;;;;;10.55;6.28;;;6.80;94.80;;;;;;5064795;28;20040;-66
2021/01/19 09:47:57;;;;;;;12.05;6.45;;;6.80;94.80;;;;;;5060805;28;20385;-67
2021/01/19 09:50:23;;;;;;;10.40;6.03;;;6.80;94.80;;;;;;5066929;28;20025;-66
2021/01/19 09:52:48;;;;;;;11.32;6.43;;;6.90;94.80;;;;;;5050736;28;20025;-66
2021/01/19 09:55:20;;;;;;;10.93;6.28;;;6.80;94.70;;;;;;5065554;28;20029;-66
2021/01/19 09:57:56;;;;;;;11.38;5.88;;;6.90;94.70;;;;;;5060493;28;20707;-67
2021/01/19 10:00:27;;;;;;;9.45;5.45;;;6.90;94.60;;;;;;5051185;28;20033;-66
2021/01/19 10:02:53;;;;;;;9.13;5.75;;;6.90;94.60;;;;;;5050801;28;20029;-67
2021/01/19 10:05:22;;;;;;;9.70;5.70;;;7.00;94.60;;;;;;5077608;28;20029;-67
2021/01/19 10:07:51;;;;;;;12.50;5.55;;;7.00;94.50;;;;;;5067596;28;20092;-67
2021/01/19 10:10:19;;;;;;;9.05;5.38;;;7.00;94.40;;;;;;5068283;28;20055;-67
2021/01/19 10:12:45;;;;;;;9.52;5.30;;;7.00;94.40;;;;;;5060091;28;20104;-67
2021/01/19 10:15:15;;;;;;;9.70;5.28;;;7.10;94.30;;;;;;5060342;28;20124;-66
2021/01/19 10:17:40;;;;;;;10.32;5.78;;;7.10;94.30;;;;;;5052683;28;20488;-66
2021/01/19 10:20:13;;;;;;;8.93;5.72;;;7.10;94.30;;;;;;5068561;28;20032;-66
2021/01/19 10:22:46;;;;;;;10.13;4.97;;;7.10;94.30;;;;;;5059910;28;20021;-67
2021/01/19 10:25:24;;;;;;;8.60;5.60;;;7.10;94.20;;;;;;5050810;28;20029;-66
2021/01/19 10:27:55;;;;;;;9.20;5.07;;;7.10;94.30;;;;;;5050855;28;20178;-66
2021/01/19 10:30:27;;;;;;;7.72;4.93;;;7.00;94.30;;;;;;5049857;28;20041;-69
2021/01/19 10:32:53;;;;;;;6.88;4.43;;;7.10;94.30;;;;;;5050758;28;20032;-69
2021/01/19 10:35:33;;;;;;;9.32;5.50;;;7.00;94.40;;;;;;5060101;28;20041;-66
2021/01/19 10:38:02;;;;;;;6.15;4.38;;;7.10;94.40;;;;;;5051031;28;20104;-67
2021/01/19 10:40:29;;;;;;;9.23;4.78;;;7.10;94.40;;;;;;5049944;28;20124;-68
2021/01/19 10:42:55;;;;;;;9.70;4.78;;;7.00;94.30;;;;;;5050656;28;20432;-68
2021/01/19 10:45:31;;;;;;;9.02;3.92;;;7.10;94.30;;;;;;5050389;28;20577;-67
2021/01/19 10:47:59;;;;;;;7.03;4.40;;;7.10;94.30;;;;;;5055394;28;20028;-69
2021/01/19 10:50:32;;;;;;;6.68;4.53;;;7.00;94.20;;;;;;5056465;28;20037;-68
2021/01/19 10:52:59;;;;;;;7.70;4.65;;;7.00;94.30;;;;;;5057812;28;20033;-68
2021/01/19 10:55:25;;;;;;;7.70;4.15;;;7.00;94.20;;;;;;5061815;28;20033;-69
2021/01/19 10:57:56;;;;;;;8.63;4.53;;;7.00;94.30;;;;;;5064150;28;20024;-68
2021/01/19 11:00:23;;;;;;;7.97;4.10;;;7.00;94.20;;;;;;5058101;28;20034;-67
2021/01/19 11:02:49;;;;;;;6.40;3.67;;;7.00;94.20;;;;;;5056542;28;20025;-67
2021/01/19 11:05:14;;;;;;;7.78;3.72;;;7.00;94.20;;;;;;5064704;28;20034;-67
2021/01/19 11:07:47;;;;;;;8.00;4.13;;;6.90;94.10;;;;;;5053933;28;20058;-67
2021/01/19 11:10:14;;;;;;;8.32;4.20;;;6.90;94.20;;;;;;5054384;28;20083;-67
2021/01/19 11:12:41;;;;;;;8.90;4.18;;;6.90;94.20;;;;;;5061291;28;20025;-67
2021/01/19 11:15:08;;;;;;;7.55;3.95;;;6.90;94.20;;;;;;5069140;28;20044;-66
2021/01/19 11:17:35;;;;;;;10.23;4.38;;;6.90;94.20;;;;;;5055165;28;20505;-66
2021/01/19 11:20:02;;;;;;;8.68;4.22;;;6.80;94.20;;;;;;5061021;28;20044;-67
2021/01/19 11:22:27;;;;;;;7.50;4.40;;;6.80;94.30;;;;;;5053932;28;20021;-67
2021/01/19 11:24:53;;;;;;;9.68;4.18;;;6.70;94.40;;;;;;5071290;28;20457;-68
2021/01/19 11:27:18;;;;;;;8.60;4.03;;;6.70;94.40;;;;;;5073665;28;20028;-67
2021/01/19 11:29:43;;;;;;;6.75;3.92;;;6.60;94.40;;;;;;5071818;28;20130;-66
2021/01/19 11:32:09;;;;;;;8.88;3.85;;;6.60;94.40;;;;;;5066574;28;20028;-67
2021/01/19 11:34:34;;;;;;;7.25;4.15;;;6.50;94.40;;;;;;5068962;28;20029;-66
2021/01/19 11:37:00;;;;;;;8.75;4.60;;;6.50;94.50;;;;;;5079168;28;20550;-67
2021/01/19 11:39:25;;;;;;;8.00;3.83;;;6.50;94.60;;;;;;5073456;28;20131;-67
2021/01/19 11:41:51;;;;;;;5.65;3.60;;;6.40;94.60;;;;;;5073570;28;20484;-66
2021/01/19 11:44:17;;;;;;;9.32;3.95;;;6.40;94.70;;;;;;5073277;28;20040;-66
2021/01/19 11:46:43;;;;;;;7.78;3.63;;;6.40;94.70;;;;;;5073504;28;20056;-66
2021/01/19 11:49:09;;;;;;;8.40;3.50;;;6.30;94.80;;;;;;5064951;28;20025;-66
2021/01/19 11:51:37;;;;;;;6.85;3.72;;;6.30;94.90;;;;;;5055920;28;20024;-66
2021/01/19 11:54:04;;;;;;;8.93;3.97;;;6.20;94.80;;;;;;5053314;28;20025;-66
2021/01/19 11:56:40;;;;;;;7.10;3.78;;;6.20;94.90;;;;;;5066757;28;20032;-67
2021/01/19 11:59:08;;;;;;;10.35;4.20;;;6.20;94.80;;;;;;5073445;28;20078;-67
2021/01/19 12:01:34;;;;;;;7.47;3.60;;;6.10;94.70;;;;;;5072868;28;20133;-66
2021/01/19 12:03:59;;;;;;;7.35;3.60;;;6.00;94.80;;;;;;5073273;28;20877;-66
2021/01/19 12:06:25;;;;;;;6.32;3.40;;;5.90;94.80;;;;;;5073258;28;20176;-66
2021/01/19 12:08:52;;;;;;;8.40;3.90;;;5.80;94.80;;;;;;5053738;28;20504;-66
2021/01/19 12:11:18;;;;;;;8.75;4.22;;;5.80;94.90;;;;;;5053016;28;20084;-66
2021/01/19 12:13:45;;;;;;;9.02;3.75;;;5.60;94.80;;;;;;5064418;28;20520;-66
2021/01/19 12:16:11;;;;;;;8.60;4.30;;;5.60;94.90;;;;;;5052690;28;20058;-66
2021/01/19 12:18:37;;;;;;;7.18;3.78;;;5.50;94.90;;;;;;5052830;28;20431;-66
2021/01/19 12:21:05;;;;;;;6.40;4.10;;;5.50;94.90;;;;;;5052817;28;20033;-66
2021/01/19 12:23:31;;;;;;;7.28;3.80;;;5.40;94.90;;;;;;5052800;28;20025;-67
2021/01/19 12:25:58;;;;;;;5.00;3.47;;;5.40;94.80;;;;;;5071562;28;20047;-67
2021/01/19 12:28:24;;;;;;;7.57;3.78;;;5.30;94.90;;;;;;5072929;28;20095;-67
2021/01/19 12:30:50;;;;;;;5.43;3.38;;;5.20;95.00;;;;;;5071865;28;20036;-65
2021/01/19 12:33:16;;;;;;;5.75;3.45;;;5.20;95.00;;;;;;5072750;28;20094;-67
2021/01/19 12:35:42;;;;;;;6.00;3.28;;;5.10;95.10;;;;;;5092959;28;20066;-67
2021/01/19 12:38:07;;;;;;;6.35;3.78;;;5.10;95.10;;;;;;5092599;28;20020;-67
2021/01/19 12:40:33;;;;;;;7.40;3.75;;;5.10;95.10;;;;;;5053976;28;20028;-67
2021/01/19 12:42:58;;;;;;;5.80;3.47;;;5.00;95.10;;;;;;5070498;28;20032;-67
2021/01/19 12:45:24;;;;;;;5.22;2.78;;;5.00;95.20;;;;;;5061163;28;20067;-67
2021/01/19 12:47:50;;;;;;;5.68;3.70;;;5.00;95.30;;;;;;5072569;28;20070;-67
2021/01/19 12:50:16;;;;;;;6.45;3.63;;;4.90;95.30;;;;;;5071991;28;20115;-66
2021/01/19 12:52:42;;;;;;;4.88;3.25;;;4.90;95.30;;;;;;5072660;28;20056;-66
2021/01/19 12:55:08;;;;;;;5.20;3.10;;;4.90;95.20;;;;;;5071748;28;20067;-66
2021/01/19 12:57:34;;;;;;;5.70;3.40;;;4.90;95.30;;;;;;5072066;28;20461;-66
2021/01/19 12:59:59;;;;;;;5.68;3.47;;;4.90;95.40;;;;;;5070987;28;20028;-66
2021/01/19 13:02:25;;;;;;;5.22;3.10;;;4.90;95.40;;;;;;5071890;28;20078;-66
2021/01/19 13:04:50;;;;;;;5.55;3.72;;;4.90;95.50;;;;;;5071849;28;20559;-66
2021/01/19 13:07:16;;;;;;;4.53;3.15;;;4.80;95.50;;;;;;5072337;28;20024;-66
2021/01/19 13:09:42;;;;;;;4.53;3.00;;;4.80;95.60;;;;;;5054930;28;20017;-65
2021/01/19 13:12:10;;;;;;;4.82;3.28;;;4.80;95.60;;;;;;5051889;28;20028;-65
2021/01/19 13:14:35;;;;;;;5.55;3.60;;;4.80;95.70;;;;;;5079278;28;20397;-66
2021/01/19 13:17:01;;;;;;;5.55;3.83;;;4.70;95.70;;;;;;5071100;28;20025;-66
2021/01/19 13:19:26;;;;;;;6.63;3.70;;;4.80;95.70;;;;;;5071533;28;20030;-66
2021/01/19 13:21:52;;;;;;;4.85;3.15;;;4.80;95.70;;;;;;5071758;28;20039;-66
2021/01/19 13:24:17;;;;;;;5.40;3.40;;;4.70;95.80;;;;;;5071583;28;20020;-66